sensor_id;sensor_type;location;lat;lon;timestamp;pressure;altitude;pressure_sealevel;temperature;humidity
82006;BME280;71529;47.484;19.064;2023-11-19T00:00:20;101048.00;;;6.21;60.70
82006;BME280;71529;47.484;19.064;2023-11-19T00:02:48;101043.06;;;6.15;62.94
82006;BME280;71529;47.484;19.064;2023-11-19T00:05:17;101044.16;;;5.97;61.60
82006;BME280;71529;47.484;19.064;2023-11-19T00:07:45;101051.06;;;5.99;68.18
82006;BME280;71529;47.484;19.064;2023-11-19T00:10:15;101042.69;;;6.21;70.11
82006;BME280;71529;47.484;19.064;2023-11-19T00:12:48;101024.59;;;6.27;63.94
82006;BME280;71529;47.484;19.064;2023-11-19T00:15:18;101023.38;;;6.33;63.13
82006;BME280;71529;47.484;19.064;2023-11-19T00:17:47;101021.59;;;6.47;73.36
82006;BME280;71529;47.484;19.064;2023-11-19T00:20:18;101021.88;;;6.43;65.71
82006;BME280;71529;47.484;19.064;2023-11-19T00:22:46;101025.84;;;6.50;70.69
82006;BME280;71529;47.484;19.064;2023-11-19T00:25:18;101031.38;;;6.47;65.71
82006;BME280;71529;47.484;19.064;2023-11-19T00:27:50;101033.66;;;6.39;63.62
82006;BME280;71529;47.484;19.064;2023-11-19T00:30:21;101041.56;;;6.25;64.01
82006;BME280;71529;47.484;19.064;2023-11-19T00:32:49;101050.00;;;6.31;69.28
82006;BME280;71529;47.484;19.064;2023-11-19T00:35:17;101055.69;;;6.25;70.13
82006;BME280;71529;47.484;19.064;2023-11-19T00:37:45;101057.03;;;6.32;72.29
82006;BME280;71529;47.484;19.064;2023-11-19T00:40:15;101048.25;;;6.46;69.21
82006;BME280;71529;47.484;19.064;2023-11-19T00:42:45;101056.84;;;6.35;72.18
82006;BME280;71529;47.484;19.064;2023-11-19T00:45:16;101046.81;;;6.40;67.90
82006;BME280;71529;47.484;19.064;2023-11-19T00:47:44;101051.03;;;6.29;70.47
82006;BME280;71529;47.484;19.064;2023-11-19T00:50:12;101040.53;;;6.27;66.89
82006;BME280;71529;47.484;19.064;2023-11-19T00:52:41;101030.78;;;6.28;66.54
82006;BME280;71529;47.484;19.064;2023-11-19T00:55:09;101028.78;;;6.31;66.65
82006;BME280;71529;47.484;19.064;2023-11-19T00:57:39;101037.00;;;6.27;68.56
82006;BME280;71529;47.484;19.064;2023-11-19T01:00:08;101022.94;;;5.97;65.58
82006;BME280;71529;47.484;19.064;2023-11-19T01:02:47;101029.78;;;6.15;73.52
82006;BME280;71529;47.484;19.064;2023-11-19T01:05:19;101024.63;;;6.41;74.65
82006;BME280;71529;47.484;19.064;2023-11-19T01:07:50;101020.44;;;6.51;72.45
82006;BME280;71529;47.484;19.064;2023-11-19T01:10:21;101036.88;;;6.44;66.09
82006;BME280;71529;47.484;19.064;2023-11-19T01:12:50;101037.63;;;6.46;68.91
82006;BME280;71529;47.484;19.064;2023-11-19T01:15:19;101038.66;;;6.57;72.93
82006;BME280;71529;47.484;19.064;2023-11-19T01:17:48;101032.91;;;6.51;74.69
82006;BME280;71529;47.484;19.064;2023-11-19T01:20:20;101038.94;;;6.25;69.61
82006;BME280;71529;47.484;19.064;2023-11-19T01:22:48;101035.03;;;6.30;75.07
82006;BME280;71529;47.484;19.064;2023-11-19T01:25:17;101032.63;;;6.12;69.31
82006;BME280;71529;47.484;19.064;2023-11-19T01:27:45;101026.75;;;6.07;72.19
82006;BME280;71529;47.484;19.064;2023-11-19T01:30:13;101033.78;;;5.92;68.47
82006;BME280;71529;47.484;19.064;2023-11-19T01:32:42;101030.47;;;5.73;67.47
82006;BME280;71529;47.484;19.064;2023-11-19T01:35:11;101031.06;;;5.78;71.96
82006;BME280;71529;47.484;19.064;2023-11-19T01:37:40;101030.13;;;5.79;72.87
82006;BME280;71529;47.484;19.064;2023-11-19T01:40:09;101025.09;;;5.75;71.53
82006;BME280;71529;47.484;19.064;2023-11-19T01:42:38;101021.59;;;5.90;74.11
82006;BME280;71529;47.484;19.064;2023-11-19T01:45:08;101031.34;;;5.89;71.71
82006;BME280;71529;47.484;19.064;2023-11-19T01:47:37;101027.31;;;5.82;68.20
82006;BME280;71529;47.484;19.064;2023-11-19T01:50:08;101023.31;;;5.75;73.01
82006;BME280;71529;47.484;19.064;2023-11-19T01:52:38;101014.75;;;5.70;69.99
82006;BME280;71529;47.484;19.064;2023-11-19T01:55:07;101002.94;;;5.76;73.57
82006;BME280;71529;47.484;19.064;2023-11-19T01:57:37;101001.41;;;5.87;71.25
82006;BME280;71529;47.484;19.064;2023-11-19T02:00:09;101003.09;;;5.88;77.74
82006;BME280;71529;47.484;19.064;2023-11-19T02:02:39;100990.81;;;5.72;73.19
82006;BME280;71529;47.484;19.064;2023-11-19T02:05:09;100990.59;;;5.90;74.51
82006;BME280;71529;47.484;19.064;2023-11-19T02:07:38;100984.56;;;5.73;70.39
82006;BME280;71529;47.484;19.064;2023-11-19T02:10:07;100980.38;;;5.84;74.06
82006;BME280;71529;47.484;19.064;2023-11-19T02:12:40;100977.47;;;5.73;72.66
82006;BME280;71529;47.484;19.064;2023-11-19T02:15:11;100983.44;;;5.77;75.23
82006;BME280;71529;47.484;19.064;2023-11-19T02:17:39;100985.47;;;5.57;71.25
82006;BME280;71529;47.484;19.064;2023-11-19T02:20:08;100986.53;;;5.69;73.26
82006;BME280;71529;47.484;19.064;2023-11-19T02:22:41;100986.84;;;5.79;77.18
82006;BME280;71529;47.484;19.064;2023-11-19T02:25:14;100981.22;;;5.85;72.04
82006;BME280;71529;47.484;19.064;2023-11-19T02:27:53;100972.06;;;5.45;70.82
82006;BME280;71529;47.484;19.064;2023-11-19T02:30:24;100969.94;;;5.65;74.95
82006;BME280;71529;47.484;19.064;2023-11-19T02:32:53;100962.84;;;5.66;70.36
82006;BME280;71529;47.484;19.064;2023-11-19T02:35:24;100982.66;;;5.75;72.97
82006;BME280;71529;47.484;19.064;2023-11-19T02:37:54;100981.16;;;5.86;74.02
82006;BME280;71529;47.484;19.064;2023-11-19T02:40:22;100981.16;;;5.86;72.98
82006;BME280;71529;47.484;19.064;2023-11-19T02:42:53;100974.63;;;5.76;72.36
82006;BME280;71529;47.484;19.064;2023-11-19T02:45:23;100963.06;;;5.93;76.92
82006;BME280;71529;47.484;19.064;2023-11-19T02:47:52;100965.94;;;6.04;80.40
82006;BME280;71529;47.484;19.064;2023-11-19T02:50:22;100957.09;;;5.89;71.37
82006;BME280;71529;47.484;19.064;2023-11-19T02:52:54;100952.81;;;5.87;71.20
82006;BME280;71529;47.484;19.064;2023-11-19T02:55:24;100944.44;;;5.79;71.06
82006;BME280;71529;47.484;19.064;2023-11-19T02:57:56;100951.97;;;5.86;77.06
82006;BME280;71529;47.484;19.064;2023-11-19T03:00:27;100954.56;;;5.56;71.85
82006;BME280;71529;47.484;19.064;2023-11-19T03:03:02;100954.63;;;5.71;80.04
82006;BME280;71529;47.484;19.064;2023-11-19T03:05:47;100932.50;;;5.72;75.97
82006;BME280;71529;47.484;19.064;2023-11-19T03:08:16;100935.59;;;5.64;71.22
82006;BME280;71529;47.484;19.064;2023-11-19T03:10:46;100933.41;;;5.71;77.04
82006;BME280;71529;47.484;19.064;2023-11-19T03:13:17;100947.44;;;5.73;75.92
82006;BME280;71529;47.484;19.064;2023-11-19T03:15:45;100939.63;;;5.55;72.84
82006;BME280;71529;47.484;19.064;2023-11-19T03:18:14;100920.66;;;5.77;74.25
82006;BME280;71529;47.484;19.064;2023-11-19T03:20:42;100925.63;;;5.83;73.32
82006;BME280;71529;47.484;19.064;2023-11-19T03:23:10;100920.09;;;5.72;78.17
82006;BME280;71529;47.484;19.064;2023-11-19T03:25:39;100918.66;;;5.37;72.07
82006;BME280;71529;47.484;19.064;2023-11-19T03:28:07;100921.66;;;5.60;73.85
82006;BME280;71529;47.484;19.064;2023-11-19T03:30:37;100913.94;;;5.72;78.07
82006;BME280;71529;47.484;19.064;2023-11-19T03:33:05;100919.91;;;5.75;78.04
82006;BME280;71529;47.484;19.064;2023-11-19T03:35:33;100925.84;;;5.64;73.60
82006;BME280;71529;47.484;19.064;2023-11-19T03:38:01;100932.13;;;5.48;74.46
82006;BME280;71529;47.484;19.064;2023-11-19T03:40:30;100911.50;;;5.53;75.43
82006;BME280;71529;47.484;19.064;2023-11-19T03:42:58;100888.94;;;5.61;74.33
82006;BME280;71529;47.484;19.064;2023-11-19T03:45:26;100893.59;;;5.42;71.42
82006;BME280;71529;47.484;19.064;2023-11-19T03:47:56;100882.00;;;5.59;78.49
82006;BME280;71529;47.484;19.064;2023-11-19T03:50:24;100881.25;;;5.71;76.04
82006;BME280;71529;47.484;19.064;2023-11-19T03:52:52;100876.16;;;5.68;77.07
82006;BME280;71529;47.484;19.064;2023-11-19T03:55:21;100870.56;;;5.73;74.75
82006;BME280;71529;47.484;19.064;2023-11-19T03:57:49;100872.09;;;5.77;74.10
82006;BME280;71529;47.484;19.064;2023-11-19T04:00:17;100868.78;;;5.73;76.92
82006;BME280;71529;47.484;19.064;2023-11-19T04:02:48;100870.47;;;5.74;77.04
82006;BME280;71529;47.484;19.064;2023-11-19T04:05:17;100865.06;;;5.61;73.09
82006;BME280;71529;47.484;19.064;2023-11-19T04:07:46;100854.75;;;5.71;74.71
82006;BME280;71529;47.484;19.064;2023-11-19T04:10:15;100856.72;;;5.68;71.90
82006;BME280;71529;47.484;19.064;2023-11-19T04:12:44;100850.22;;;5.73;79.18
82006;BME280;71529;47.484;19.064;2023-11-19T04:15:13;100850.41;;;5.70;75.50
82006;BME280;71529;47.484;19.064;2023-11-19T04:17:42;100839.81;;;5.70;74.39
82006;BME280;71529;47.484;19.064;2023-11-19T04:20:11;100855.75;;;5.40;72.92
82006;BME280;71529;47.484;19.064;2023-11-19T04:22:43;100849.97;;;5.48;77.19
82006;BME280;71529;47.484;19.064;2023-11-19T04:25:11;100849.06;;;5.49;76.13
82006;BME280;71529;47.484;19.064;2023-11-19T04:27:40;100836.44;;;5.38;74.42
82006;BME280;71529;47.484;19.064;2023-11-19T04:30:09;100828.63;;;5.51;77.38
82006;BME280;71529;47.484;19.064;2023-11-19T04:32:38;100836.38;;;5.54;74.84
82006;BME280;71529;47.484;19.064;2023-11-19T04:35:07;100834.50;;;5.70;76.80
82006;BME280;71529;47.484;19.064;2023-11-19T04:37:36;100829.19;;;5.70;79.44
82006;BME280;71529;47.484;19.064;2023-11-19T04:40:07;100830.75;;;5.44;77.66
82006;BME280;71529;47.484;19.064;2023-11-19T04:42:35;100848.31;;;5.61;77.74
82006;BME280;71529;47.484;19.064;2023-11-19T04:45:04;100861.75;;;5.58;74.42
82006;BME280;71529;47.484;19.064;2023-11-19T04:47:34;100869.03;;;5.54;75.89
82006;BME280;71529;47.484;19.064;2023-11-19T04:50:03;100864.19;;;5.47;74.54
82006;BME280;71529;47.484;19.064;2023-11-19T04:52:31;100870.63;;;5.57;73.61
82006;BME280;71529;47.484;19.064;2023-11-19T04:54:59;100876.69;;;5.59;76.05
82006;BME280;71529;47.484;19.064;2023-11-19T04:57:29;100873.94;;;5.60;74.48
82006;BME280;71529;47.484;19.064;2023-11-19T04:59:58;100885.97;;;5.52;72.27
82006;BME280;71529;47.484;19.064;2023-11-19T05:02:25;100879.50;;;5.42;75.11
82006;BME280;71529;47.484;19.064;2023-11-19T05:04:53;100868.06;;;5.55;76.62
82006;BME280;71529;47.484;19.064;2023-11-19T05:07:22;100860.13;;;5.55;73.21
82006;BME280;71529;47.484;19.064;2023-11-19T05:09:50;100861.00;;;5.70;74.73
82006;BME280;71529;47.484;19.064;2023-11-19T05:12:18;100860.22;;;5.54;76.51
82006;BME280;71529;47.484;19.064;2023-11-19T05:14:48;100859.41;;;5.38;72.72
82006;BME280;71529;47.484;19.064;2023-11-19T05:17:17;100874.25;;;5.56;76.92
82006;BME280;71529;47.484;19.064;2023-11-19T05:19:46;100878.78;;;5.54;70.44
82006;BME280;71529;47.484;19.064;2023-11-19T05:22:15;100880.72;;;5.36;73.20
82006;BME280;71529;47.484;19.064;2023-11-19T05:24:44;100871.19;;;5.48;76.66
82006;BME280;71529;47.484;19.064;2023-11-19T05:27:12;100854.03;;;5.39;72.65
82006;BME280;71529;47.484;19.064;2023-11-19T05:29:40;100856.00;;;5.36;75.65
82006;BME280;71529;47.484;19.064;2023-11-19T05:32:11;100858.97;;;5.45;73.25
82006;BME280;71529;47.484;19.064;2023-11-19T05:34:39;100859.91;;;5.44;76.00
82006;BME280;71529;47.484;19.064;2023-11-19T05:37:11;100852.06;;;5.43;79.61
82006;BME280;71529;47.484;19.064;2023-11-19T05:39:39;100858.88;;;5.47;75.04
82006;BME280;71529;47.484;19.064;2023-11-19T05:42:07;100858.63;;;5.22;72.95
82006;BME280;71529;47.484;19.064;2023-11-19T05:44:36;100863.75;;;5.39;74.00
82006;BME280;71529;47.484;19.064;2023-11-19T05:47:07;100853.00;;;5.42;76.19
82006;BME280;71529;47.484;19.064;2023-11-19T05:49:37;100851.19;;;5.42;76.62
82006;BME280;71529;47.484;19.064;2023-11-19T05:52:05;100856.88;;;5.07;69.81
82006;BME280;71529;47.484;19.064;2023-11-19T05:54:34;100861.50;;;5.33;81.00
82006;BME280;71529;47.484;19.064;2023-11-19T05:57:05;100863.09;;;5.35;75.56
82006;BME280;71529;47.484;19.064;2023-11-19T05:59:33;100860.56;;;5.48;75.61
82006;BME280;71529;47.484;19.064;2023-11-19T06:02:02;100853.50;;;5.48;78.21
82006;BME280;71529;47.484;19.064;2023-11-19T06:04:31;100856.44;;;5.44;72.31
82006;BME280;71529;47.484;19.064;2023-11-19T06:07:00;100863.69;;;5.11;72.42
82006;BME280;71529;47.484;19.064;2023-11-19T06:09:29;100867.59;;;5.19;78.05
82006;BME280;71529;47.484;19.064;2023-11-19T06:11:57;100844.50;;;5.21;77.09
82006;BME280;71529;47.484;19.064;2023-11-19T06:14:25;100846.41;;;5.19;73.72
82006;BME280;71529;47.484;19.064;2023-11-19T06:16:53;100849.22;;;5.16;73.41
82006;BME280;71529;47.484;19.064;2023-11-19T06:19:21;100831.63;;;5.15;75.61
82006;BME280;71529;47.484;19.064;2023-11-19T06:21:54;100839.88;;;5.25;77.29
82006;BME280;71529;47.484;19.064;2023-11-19T06:24:23;100835.09;;;5.02;72.13
82006;BME280;71529;47.484;19.064;2023-11-19T06:26:52;100844.56;;;5.06;74.60
82006;BME280;71529;47.484;19.064;2023-11-19T06:29:21;100827.41;;;5.27;79.86
82006;BME280;71529;47.484;19.064;2023-11-19T06:31:49;100828.72;;;5.20;72.63
82006;BME280;71529;47.484;19.064;2023-11-19T06:34:17;100820.69;;;5.35;79.73
82006;BME280;71529;47.484;19.064;2023-11-19T06:36:45;100823.94;;;5.26;76.71
82006;BME280;71529;47.484;19.064;2023-11-19T06:39:15;100814.25;;;5.25;74.43
82006;BME280;71529;47.484;19.064;2023-11-19T06:41:46;100825.75;;;5.40;74.08
82006;BME280;71529;47.484;19.064;2023-11-19T06:44:14;100808.09;;;5.25;71.52
82006;BME280;71529;47.484;19.064;2023-11-19T06:46:43;100821.94;;;5.30;80.46
82006;BME280;71529;47.484;19.064;2023-11-19T06:49:11;100810.75;;;5.11;72.90
82006;BME280;71529;47.484;19.064;2023-11-19T06:51:41;100817.28;;;5.19;77.98
82006;BME280;71529;47.484;19.064;2023-11-19T06:54:11;100820.38;;;5.12;72.21
82006;BME280;71529;47.484;19.064;2023-11-19T06:56:39;100809.78;;;5.12;74.62
82006;BME280;71529;47.484;19.064;2023-11-19T06:59:10;100812.06;;;5.18;74.28
82006;BME280;71529;47.484;19.064;2023-11-19T07:01:38;100809.06;;;5.24;76.11
82006;BME280;71529;47.484;19.064;2023-11-19T07:04:06;100810.19;;;5.34;79.90
82006;BME280;71529;47.484;19.064;2023-11-19T07:06:36;100806.91;;;5.44;78.43
82006;BME280;71529;47.484;19.064;2023-11-19T07:09:05;100808.41;;;5.34;77.82
82006;BME280;71529;47.484;19.064;2023-11-19T07:11:37;100801.69;;;5.29;77.06
82006;BME280;71529;47.484;19.064;2023-11-19T07:14:06;100811.47;;;5.13;75.72
82006;BME280;71529;47.484;19.064;2023-11-19T07:16:37;100804.97;;;5.18;73.30
82006;BME280;71529;47.484;19.064;2023-11-19T07:19:06;100812.00;;;5.19;77.15
82006;BME280;71529;47.484;19.064;2023-11-19T07:21:34;100808.16;;;5.09;73.08
82006;BME280;71529;47.484;19.064;2023-11-19T07:24:07;100813.81;;;5.33;77.69
82006;BME280;71529;47.484;19.064;2023-11-19T07:26:35;100821.09;;;5.29;76.62
82006;BME280;71529;47.484;19.064;2023-11-19T07:29:04;100818.91;;;5.36;79.44
82006;BME280;71529;47.484;19.064;2023-11-19T07:31:36;100815.91;;;5.42;76.63
82006;BME280;71529;47.484;19.064;2023-11-19T07:34:04;100819.31;;;5.44;76.54
82006;BME280;71529;47.484;19.064;2023-11-19T07:36:33;100815.91;;;5.42;73.85
82006;BME280;71529;47.484;19.064;2023-11-19T07:39:03;100810.59;;;5.28;74.10
82006;BME280;71529;47.484;19.064;2023-11-19T07:41:32;100824.19;;;5.22;73.58
82006;BME280;71529;47.484;19.064;2023-11-19T07:44:00;100825.84;;;5.38;76.58
82006;BME280;71529;47.484;19.064;2023-11-19T07:46:29;100834.63;;;5.39;74.48
82006;BME280;71529;47.484;19.064;2023-11-19T07:48:58;100838.44;;;5.49;79.03
82006;BME280;71529;47.484;19.064;2023-11-19T07:51:26;100825.84;;;5.38;74.47
82006;BME280;71529;47.484;19.064;2023-11-19T07:53:55;100823.31;;;5.21;74.74
82006;BME280;71529;47.484;19.064;2023-11-19T07:56:23;100810.19;;;5.34;78.34
82006;BME280;71529;47.484;19.064;2023-11-19T07:58:52;100814.66;;;5.33;75.33
82006;BME280;71529;47.484;19.064;2023-11-19T08:01:20;100815.16;;;5.40;79.03
82006;BME280;71529;47.484;19.064;2023-11-19T08:03:50;100807.09;;;5.41;74.13
82006;BME280;71529;47.484;19.064;2023-11-19T08:06:22;100796.22;;;5.46;74.68
82006;BME280;71529;47.484;19.064;2023-11-19T08:08:50;100800.28;;;5.37;72.69
82006;BME280;71529;47.484;19.064;2023-11-19T08:11:19;100775.69;;;5.49;77.86
82006;BME280;71529;47.484;19.064;2023-11-19T08:13:47;100768.88;;;5.45;71.49
82006;BME280;71529;47.484;19.064;2023-11-19T08:16:16;100759.78;;;5.49;75.27
82006;BME280;71529;47.484;19.064;2023-11-19T08:18:44;100764.63;;;5.43;74.42
82006;BME280;71529;47.484;19.064;2023-11-19T08:21:12;100760.38;;;5.40;73.96
82006;BME280;71529;47.484;19.064;2023-11-19T08:23:41;100747.78;;;5.58;79.80
82006;BME280;71529;47.484;19.064;2023-11-19T08:26:10;100720.78;;;5.65;76.82
82006;BME280;71529;47.484;19.064;2023-11-19T08:28:38;100708.75;;;5.74;79.07
82006;BME280;71529;47.484;19.064;2023-11-19T08:31:07;100730.06;;;5.73;77.92
82006;BME280;71529;47.484;19.064;2023-11-19T08:33:35;100750.13;;;5.77;75.97
82006;BME280;71529;47.484;19.064;2023-11-19T08:36:04;100758.47;;;5.56;71.99
82006;BME280;71529;47.484;19.064;2023-11-19T08:38:33;100765.84;;;5.65;75.07
82006;BME280;71529;47.484;19.064;2023-11-19T08:41:04;100739.44;;;5.64;74.27
82006;BME280;71529;47.484;19.064;2023-11-19T08:43:33;100733.38;;;5.76;75.88
82006;BME280;71529;47.484;19.064;2023-11-19T08:46:01;100744.06;;;5.75;73.86
82006;BME280;71529;47.484;19.064;2023-11-19T08:48:29;100737.19;;;5.72;78.78
82006;BME280;71529;47.484;19.064;2023-11-19T08:50:59;100721.53;;;5.82;75.36
82006;BME280;71529;47.484;19.064;2023-11-19T08:53:27;100737.53;;;5.80;72.51
82006;BME280;71529;47.484;19.064;2023-11-19T08:55:55;100757.78;;;6.09;76.62
82006;BME280;71529;47.484;19.064;2023-11-19T08:58:25;100743.03;;;6.05;75.47
82006;BME280;71529;47.484;19.064;2023-11-19T09:00:53;100723.63;;;6.05;74.67
82006;BME280;71529;47.484;19.064;2023-11-19T09:03:23;100738.50;;;6.07;77.98
82006;BME280;71529;47.484;19.064;2023-11-19T09:05:53;100748.53;;;6.02;74.84
82006;BME280;71529;47.484;19.064;2023-11-19T09:08:22;100754.41;;;6.07;78.24
82006;BME280;71529;47.484;19.064;2023-11-19T09:10:51;100751.56;;;5.96;73.63
82006;BME280;71529;47.484;19.064;2023-11-19T09:13:19;100742.88;;;5.94;74.30
82006;BME280;71529;47.484;19.064;2023-11-19T09:15:48;100759.53;;;5.96;73.86
82006;BME280;71529;47.484;19.064;2023-11-19T09:18:17;100758.47;;;5.99;74.87
82006;BME280;71529;47.484;19.064;2023-11-19T09:20:45;100760.41;;;5.97;74.35
82006;BME280;71529;47.484;19.064;2023-11-19T09:23:14;100754.69;;;5.89;73.07
82006;BME280;71529;47.484;19.064;2023-11-19T09:25:42;100750.41;;;6.14;76.40
82006;BME280;71529;47.484;19.064;2023-11-19T09:28:11;100751.81;;;6.20;78.31
82006;BME280;71529;47.484;19.064;2023-11-19T09:30:40;100759.97;;;6.17;72.24
82006;BME280;71529;47.484;19.064;2023-11-19T09:33:09;100752.78;;;6.05;70.92
82006;BME280;71529;47.484;19.064;2023-11-19T09:35:37;100760.09;;;6.01;72.68
82006;BME280;71529;47.484;19.064;2023-11-19T09:38:06;100745.31;;;5.97;71.58
82006;BME280;71529;47.484;19.064;2023-11-19T09:40:34;100737.34;;;5.97;71.51
82006;BME280;71529;47.484;19.064;2023-11-19T09:43:02;100746.06;;;5.99;70.52
82006;BME280;71529;47.484;19.064;2023-11-19T09:45:32;100729.94;;;6.02;73.57
82006;BME280;71529;47.484;19.064;2023-11-19T09:48:05;100733.09;;;6.09;73.67
82006;BME280;71529;47.484;19.064;2023-11-19T09:50:36;100718.97;;;6.08;72.73
82006;BME280;71529;47.484;19.064;2023-11-19T09:53:04;100709.81;;;6.00;69.87
82006;BME280;71529;47.484;19.064;2023-11-19T09:55:33;100717.94;;;6.11;73.72
82006;BME280;71529;47.484;19.064;2023-11-19T09:58:01;100709.22;;;6.09;73.26
82006;BME280;71529;47.484;19.064;2023-11-19T10:00:30;100704.38;;;6.15;77.91
82006;BME280;71529;47.484;19.064;2023-11-19T10:03:00;100700.03;;;6.14;75.33
82006;BME280;71529;47.484;19.064;2023-11-19T10:05:29;100695.44;;;6.16;73.21
82006;BME280;71529;47.484;19.064;2023-11-19T10:07:58;100700.50;;;6.07;71.59
82006;BME280;71529;47.484;19.064;2023-11-19T10:10:26;100679.63;;;6.15;73.07
82006;BME280;71529;47.484;19.064;2023-11-19T10:12:55;100670.75;;;6.16;72.54
82006;BME280;71529;47.484;19.064;2023-11-19T10:15:24;100671.22;;;6.08;70.27
82006;BME280;71529;47.484;19.064;2023-11-19T10:17:55;100659.16;;;6.17;72.47
82006;BME280;71529;47.484;19.064;2023-11-19T10:20:24;100658.88;;;6.21;77.19
82006;BME280;71529;47.484;19.064;2023-11-19T10:22:52;100664.53;;;6.29;76.16
82006;BME280;71529;47.484;19.064;2023-11-19T10:25:24;100660.50;;;6.36;74.23
82006;BME280;71529;47.484;19.064;2023-11-19T10:27:53;100654.56;;;6.33;74.55
82006;BME280;71529;47.484;19.064;2023-11-19T10:30:23;100661.53;;;6.34;70.65
82006;BME280;71529;47.484;19.064;2023-11-19T10:33:06;100657.47;;;6.42;71.09
82006;BME280;71529;47.484;19.064;2023-11-19T10:35:36;100666.78;;;6.35;69.43
82006;BME280;71529;47.484;19.064;2023-11-19T10:38:13;100661.22;;;6.26;75.72
82006;BME280;71529;47.484;19.064;2023-11-19T10:40:43;100659.00;;;6.32;71.09
82006;BME280;71529;47.484;19.064;2023-11-19T10:43:12;100660.41;;;6.38;71.03
82006;BME280;71529;47.484;19.064;2023-11-19T10:45:41;100661.47;;;6.35;76.06
82006;BME280;71529;47.484;19.064;2023-11-19T10:48:09;100653.94;;;6.42;71.09
82006;BME280;71529;47.484;19.064;2023-11-19T10:50:41;100660.06;;;6.30;73.08
82006;BME280;71529;47.484;19.064;2023-11-19T10:53:10;100652.88;;;6.32;72.90
82006;BME280;71529;47.484;19.064;2023-11-19T10:55:39;100648.94;;;6.37;76.19
82006;BME280;71529;47.484;19.064;2023-11-19T10:58:09;100645.84;;;6.31;75.13
82006;BME280;71529;47.484;19.064;2023-11-19T11:00:43;100630.06;;;6.42;74.29
82006;BME280;71529;47.484;19.064;2023-11-19T11:03:16;100622.84;;;6.44;72.85
82006;BME280;71529;47.484;19.064;2023-11-19T11:05:46;100618.38;;;6.44;71.80
82006;BME280;71529;47.484;19.064;2023-11-19T11:08:15;100614.28;;;6.53;74.46
82006;BME280;71529;47.484;19.064;2023-11-19T11:10:45;100598.31;;;6.40;70.28
82006;BME280;71529;47.484;19.064;2023-11-19T11:13:18;100596.44;;;6.42;73.30
82006;BME280;71529;47.484;19.064;2023-11-19T11:15:46;100597.56;;;6.38;72.04
82006;BME280;71529;47.484;19.064;2023-11-19T11:18:16;100589.19;;;6.44;74.13
82006;BME280;71529;47.484;19.064;2023-11-19T11:20:45;100578.06;;;6.52;74.22
82006;BME280;71529;47.484;19.064;2023-11-19T11:23:50;100578.91;;;6.52;74.98
82006;BME280;71529;47.484;19.064;2023-11-19T11:26:33;100583.50;;;6.63;72.98
82006;BME280;71529;47.484;19.064;2023-11-19T11:29:14;100578.72;;;6.68;74.58
82006;BME280;71529;47.484;19.064;2023-11-19T11:31:52;100580.72;;;6.64;73.71
82006;BME280;71529;47.484;19.064;2023-11-19T11:34:47;100587.50;;;6.56;74.02
82006;BME280;71529;47.484;19.064;2023-11-19T11:37:25;100585.88;;;6.41;74.86
82006;BME280;71529;47.484;19.064;2023-11-19T11:39:57;100590.16;;;6.43;72.37
82006;BME280;71529;47.484;19.064;2023-11-19T11:42:33;100578.59;;;6.57;76.34
82006;BME280;71529;47.484;19.064;2023-11-19T11:45:04;100579.22;;;6.60;73.25
82006;BME280;71529;47.484;19.064;2023-11-19T11:48:10;100570.09;;;6.64;73.27
82006;BME280;71529;47.484;19.064;2023-11-19T11:50:50;100560.63;;;6.60;72.47
82006;BME280;71529;47.484;19.064;2023-11-19T11:53:20;100559.81;;;6.60;74.61
82006;BME280;71529;47.484;19.064;2023-11-19T11:55:57;100555.66;;;6.68;74.26
82006;BME280;71529;47.484;19.064;2023-11-19T11:58:29;100556.59;;;6.67;75.11
82006;BME280;71529;47.484;19.064;2023-11-19T12:01:01;100562.66;;;6.69;75.04
82006;BME280;71529;47.484;19.064;2023-11-19T12:03:31;100550.25;;;6.70;72.38
82006;BME280;71529;47.484;19.064;2023-11-19T12:05:59;100533.69;;;6.66;75.84
82006;BME280;71529;47.484;19.064;2023-11-19T12:08:29;100528.69;;;6.74;74.38
82006;BME280;71529;47.484;19.064;2023-11-19T12:10:58;100522.72;;;6.71;72.47
82006;BME280;71529;47.484;19.064;2023-11-19T12:13:46;100518.69;;;6.78;72.04
82006;BME280;71529;47.484;19.064;2023-11-19T12:16:17;100508.59;;;6.83;73.95
82006;BME280;71529;47.484;19.064;2023-11-19T12:18:45;100509.69;;;6.81;71.80
82006;BME280;71529;47.484;19.064;2023-11-19T12:21:27;100518.06;;;6.87;73.70
82006;BME280;71529;47.484;19.064;2023-11-19T12:23:57;100508.91;;;6.91;71.68
82006;BME280;71529;47.484;19.064;2023-11-19T12:26:35;100493.28;;;6.87;76.27
82006;BME280;71529;47.484;19.064;2023-11-19T12:29:04;100494.03;;;6.89;71.94
82006;BME280;71529;47.484;19.064;2023-11-19T12:31:37;100480.66;;;6.90;71.38
82006;BME280;71529;47.484;19.064;2023-11-19T12:34:09;100482.13;;;6.94;72.37
82006;BME280;71529;47.484;19.064;2023-11-19T12:36:40;100467.22;;;7.04;71.74
82006;BME280;71529;47.484;19.064;2023-11-19T12:39:10;100470.38;;;7.09;71.17
82006;BME280;71529;47.484;19.064;2023-11-19T12:41:49;100464.78;;;7.01;72.71
82006;BME280;71529;47.484;19.064;2023-11-19T12:44:19;100476.81;;;6.94;69.97
82006;BME280;71529;47.484;19.064;2023-11-19T12:47:03;100471.63;;;6.93;73.17
82006;BME280;71529;47.484;19.064;2023-11-19T12:49:33;100464.56;;;7.04;76.68
82006;BME280;71529;47.484;19.064;2023-11-19T12:52:10;100451.91;;;7.08;74.42
82006;BME280;71529;47.484;19.064;2023-11-19T12:54:40;100448.72;;;7.15;72.63
82006;BME280;71529;47.484;19.064;2023-11-19T12:57:08;100442.03;;;7.10;71.97
82006;BME280;71529;47.484;19.064;2023-11-19T12:59:36;100433.53;;;7.05;72.28
82006;BME280;71529;47.484;19.064;2023-11-19T13:02:06;100425.34;;;7.08;73.27
82006;BME280;71529;47.484;19.064;2023-11-19T13:04:35;100427.50;;;7.03;71.93